Time;durP1;ratioP1;P1;durP2;ratioP2;P2;SDS_P1;SDS_P2;PMS_P1;PMS_P2;Temp;Humidity;BMP_temperature;BMP_pressure;BME280_temperature;BME280_humidity;BME280_pressure;Samples;Min_cycle;Max_cycle;Signal;HPM_P1;HPM_P2
2021/12/20 00:00:24;;;;;;;16.40;3.73;;;25.90;99.90;;;;;;5081739;28;20203;-74
2021/12/20 00:02:58;;;;;;;23.23;5.60;;;25.80;99.90;;;;;;5068790;28;20191;-70
2021/12/20 00:05:25;;;;;;;22.60;3.90;;;26.30;99.90;;;;;;5070893;28;20676;-70
2021/12/20 00:07:54;;;;;;;18.33;3.50;;;26.60;99.90;;;;;;5073700;28;20183;-72
2021/12/20 00:10:22;;;;;;;16.97;3.40;;;26.90;99.90;;;;;;5070153;28;20222;-72
2021/12/20 00:12:51;;;;;;;20.07;4.23;;;27.10;99.90;;;;;;5074034;28;20201;-71
2021/12/20 00:15:19;;;;;;;13.97;3.47;;;26.70;99.90;;;;;;5052565;28;20213;-69
2021/12/20 00:17:47;;;;;;;22.27;4.03;;;26.30;99.90;;;;;;5070554;28;20227;-72
2021/12/20 00:20:14;;;;;;;26.53;3.83;;;26.20;99.90;;;;;;5050968;28;20184;-72
2021/12/20 00:22:42;;;;;;;13.80;2.87;;;26.30;99.90;;;;;;5069839;28;20187;-72
2021/12/20 00:25:09;;;;;;;15.77;3.23;;;26.90;99.90;;;;;;5068757;28;20195;-70
2021/12/20 00:27:37;;;;;;;16.83;3.70;;;27.30;99.90;;;;;;5068855;28;20248;-70
2021/12/20 00:30:07;;;;;;;18.13;3.33;;;27.20;99.90;;;;;;5069342;28;20190;-71
2021/12/20 00:32:35;;;;;;;14.17;2.47;;;27.20;99.90;;;;;;5068914;28;20195;-71
2021/12/20 00:35:03;;;;;;;12.47;2.60;;;27.20;99.90;;;;;;5067888;28;20179;-72
2021/12/20 00:40:22;;;;;;;12.50;2.93;;;27.80;99.90;;;;;;5067409;28;20186;-73
2021/12/20 00:42:50;;;;;;;18.63;2.73;;;27.80;99.90;;;;;;5066187;28;20672;-70
2021/12/20 00:45:19;;;;;;;15.17;2.60;;;27.70;99.90;;;;;;5068103;28;20179;-70
2021/12/20 00:47:47;;;;;;;9.87;2.50;;;27.70;99.90;;;;;;5069391;28;20187;-71
2021/12/20 00:50:16;;;;;;;14.43;3.13;;;27.60;99.90;;;;;;5069497;28;20183;-71
2021/12/20 00:52:45;;;;;;;13.60;2.97;;;27.60;99.90;;;;;;5066730;28;20278;-71
2021/12/20 00:55:16;;;;;;;10.87;3.27;;;27.90;99.90;;;;;;5067021;28;20664;-71
2021/12/20 00:57:44;;;;;;;16.03;4.23;;;28.40;99.90;;;;;;5072605;28;20251;-70
2021/12/20 01:00:13;;;;;;;13.47;2.20;;;28.50;99.90;;;;;;5071567;28;20637;-72
2021/12/20 01:02:41;;;;;;;14.13;2.93;;;28.80;99.90;;;;;;5068452;28;20253;-70
2021/12/20 01:05:08;;;;;;;13.13;3.13;;;29.20;99.90;;;;;;5068932;28;20188;-70
2021/12/20 01:07:36;;;;;;;8.37;2.50;;;29.20;99.90;;;;;;5075888;28;20210;-73
2021/12/20 01:10:07;;;;;;;15.57;2.90;;;29.10;99.90;;;;;;5067680;28;20190;-72
2021/12/20 01:12:49;;;;;;;15.83;3.07;;;28.50;99.90;;;;;;5073186;28;20195;-72
2021/12/20 01:15:37;;;;;;;15.40;5.03;;;28.50;99.90;;;;;;5072269;28;20610;-73
2021/12/20 01:18:06;;;;;;;18.27;2.90;;;28.80;99.90;;;;;;5075440;28;20192;-70
2021/12/20 01:20:35;;;;;;;12.13;2.17;;;29.10;99.90;;;;;;5075498;28;20606;-69
2021/12/20 01:23:03;;;;;;;12.60;3.23;;;29.30;99.90;;;;;;5070225;28;20240;-70
2021/12/20 01:25:30;;;;;;;9.30;2.10;;;29.50;99.90;;;;;;5072561;28;20259;-68
2021/12/20 01:27:58;;;;;;;14.43;3.13;;;29.30;99.90;;;;;;5069138;28;20186;-72
2021/12/20 01:30:28;;;;;;;10.53;2.43;;;29.10;99.90;;;;;;5072125;28;20211;-72
2021/12/20 01:32:56;;;;;;;15.10;2.40;;;29.20;99.90;;;;;;5066533;28;20179;-71
2021/12/20 01:35:26;;;;;;;15.23;3.37;;;29.40;99.90;;;;;;5070920;28;20184;-73
2021/12/20 01:37:54;;;;;;;9.47;2.40;;;29.70;99.90;;;;;;5073238;28;20207;-70
2021/12/20 01:40:23;;;;;;;9.90;1.87;;;29.80;99.90;;;;;;5073059;28;20199;-72
2021/12/20 01:42:55;;;;;;;12.93;2.40;;;29.90;99.90;;;;;;5073643;28;20183;-73
2021/12/20 01:45:24;;;;;;;14.80;2.67;;;29.50;99.90;;;;;;5071579;28;20195;-71
2021/12/20 01:48:16;;;;;;;13.93;2.83;;;29.50;99.90;;;;;;5072877;28;20183;-73
2021/12/20 01:53:16;;;;;;;11.10;2.20;;;29.80;99.90;;;;;;5073477;28;20190;-68
2021/12/20 01:55:44;;;;;;;11.30;2.23;;;29.70;99.90;;;;;;5074024;28;20172;-73
2021/12/20 01:58:11;;;;;;;8.87;2.33;;;29.30;99.90;;;;;;5073880;28;20306;-71
2021/12/20 02:01:25;;;;;;;13.17;2.37;;;29.50;99.90;;;;;;5070885;28;20195;-72
2021/12/20 02:03:30;;;;;;;12.83;2.63;;;29.30;99.90;;;;;;5059045;28;20188;-74
2021/12/20 02:06:02;;;;;;;7.67;2.00;;;29.40;99.90;;;;;;5073473;28;20183;-70
2021/12/20 02:08:29;;;;;;;13.93;2.20;;;29.50;99.90;;;;;;5068130;28;20637;-74
2021/12/20 02:11:03;;;;;;;9.43;2.30;;;29.40;99.90;;;;;;5071478;28;20688;-74
2021/12/20 02:13:35;;;;;;;13.63;2.60;;;29.30;99.90;;;;;;5071507;28;20183;-74
2021/12/20 02:16:06;;;;;;;13.23;2.93;;;29.80;99.90;;;;;;5053604;28;20184;-73
2021/12/20 02:18:35;;;;;;;14.07;2.70;;;30.10;99.90;;;;;;5072519;28;20202;-69
2021/12/20 02:21:03;;;;;;;10.87;2.50;;;30.20;99.90;;;;;;5073161;28;20223;-73
2021/12/20 02:23:30;;;;;;;12.33;2.60;;;30.30;99.90;;;;;;5070316;28;20791;-73
2021/12/20 02:25:59;;;;;;;11.60;3.13;;;30.50;99.90;;;;;;5071770;28;20543;-69
2021/12/20 02:28:30;;;;;;;12.10;2.30;;;30.50;99.90;;;;;;5072340;28;20184;-72
2021/12/20 02:39:19;;;;;;;12.37;3.00;;;30.90;99.90;;;;;;5071396;28;20189;-69
2021/12/20 02:41:46;;;;;;;12.77;2.57;;;30.50;99.90;;;;;;5070952;28;20229;-70
2021/12/20 02:44:19;;;;;;;12.83;3.47;;;30.70;99.90;;;;;;5050833;28;20631;-72
2021/12/20 02:47:04;;;;;;;12.27;2.92;;;31.00;99.90;;;;;;5071535;28;20230;-70
2021/12/20 02:49:33;;;;;;;16.27;2.27;;;31.20;99.90;;;;;;5069878;28;20191;-69
2021/12/20 02:52:04;;;;;;;13.00;2.70;;;31.10;99.90;;;;;;5071587;28;20258;-68
2021/12/20 02:54:31;;;;;;;10.55;2.63;;;31.20;99.90;;;;;;5069068;28;20233;-69
2021/12/20 02:56:59;;;;;;;12.57;2.30;;;31.10;99.90;;;;;;5071278;28;20246;-66
2021/12/20 02:59:27;;;;;;;12.77;2.57;;;31.10;99.90;;;;;;5070429;28;20609;-69
2021/12/20 03:02:12;;;;;;;11.38;2.35;;;30.70;99.90;;;;;;5070045;28;20764;-69
2021/12/20 03:04:40;;;;;;;4.50;1.77;;;30.70;99.90;;;;;;5070663;28;20599;-67
2021/12/20 03:07:14;;;;;;;11.68;2.00;;;30.80;99.90;;;;;;5069767;28;20182;-68
2021/12/20 03:09:49;;;;;;;13.07;2.58;;;30.60;99.90;;;;;;5071977;28;20249;-70
2021/12/20 03:12:16;;;;;;;18.95;2.70;;;30.80;99.90;;;;;;5070624;28;20222;-69
2021/12/20 03:14:47;;;;;;;10.50;2.45;;;30.60;99.90;;;;;;5070356;28;20289;-68
2021/12/20 03:17:15;;;;;;;12.43;2.25;;;30.60;99.90;;;;;;5070156;28;20218;-67
2021/12/20 03:19:42;;;;;;;14.60;2.57;;;31.00;99.90;;;;;;5071344;28;20185;-68
2021/12/20 03:22:11;;;;;;;10.40;2.15;;;30.60;99.90;;;;;;5069901;28;20183;-68
2021/12/20 03:24:39;;;;;;;7.88;2.25;;;30.70;99.90;;;;;;5070722;28;20218;-67
2021/12/20 03:27:07;;;;;;;12.32;2.78;;;31.10;99.90;;;;;;5053007;28;20745;-69
2021/12/20 03:29:35;;;;;;;13.15;2.42;;;30.80;99.90;;;;;;5070664;28;20180;-69
2021/12/20 03:32:02;;;;;;;12.68;2.35;;;30.70;99.90;;;;;;5070866;28;20207;-68
2021/12/20 03:34:30;;;;;;;12.27;2.58;;;31.10;99.90;;;;;;5071506;28;20240;-68
2021/12/20 03:36:57;;;;;;;9.40;2.50;;;31.00;99.90;;;;;;5071350;28;20244;-69
2021/12/20 03:39:24;;;;;;;7.28;1.77;;;31.10;99.90;;;;;;5071990;28;20175;-67
2021/12/20 03:41:52;;;;;;;10.77;2.45;;;31.00;99.90;;;;;;5071669;28;20179;-70
2021/12/20 03:44:19;;;;;;;12.43;2.13;;;31.00;99.90;;;;;;5071980;28;20191;-68
2021/12/20 03:46:47;;;;;;;13.77;2.80;;;31.10;99.90;;;;;;5071824;28;20175;-68
2021/12/20 03:49:14;;;;;;;11.25;2.35;;;31.20;99.90;;;;;;5071844;28;20187;-68
2021/12/20 03:51:43;;;;;;;5.80;1.30;;;31.50;99.90;;;;;;5072028;28;20222;-68
2021/12/20 03:54:10;;;;;;;14.45;2.78;;;31.40;99.90;;;;;;5071421;28;20183;-68
2021/12/20 03:56:38;;;;;;;10.48;2.72;;;31.30;99.90;;;;;;5071553;28;20211;-67
2021/12/20 03:59:05;;;;;;;13.27;2.72;;;31.30;99.90;;;;;;5072303;28;20186;-66
2021/12/20 04:01:32;;;;;;;11.90;3.10;;;31.50;99.90;;;;;;5068119;28;20179;-66
2021/12/20 04:04:00;;;;;;;15.15;2.97;;;31.30;99.90;;;;;;5072502;28;20566;-67
2021/12/20 04:06:28;;;;;;;14.30;2.78;;;31.40;99.90;;;;;;5073242;28;20511;-66
2021/12/20 04:08:56;;;;;;;10.85;2.50;;;31.20;99.90;;;;;;5071843;28;20183;-67
2021/12/20 04:11:23;;;;;;;13.68;2.17;;;31.20;99.90;;;;;;5071386;28;20241;-66
2021/12/20 04:13:50;;;;;;;15.57;2.50;;;31.20;99.90;;;;;;5071786;28;20283;-67
2021/12/20 04:16:18;;;;;;;13.82;2.47;;;31.30;99.90;;;;;;5071420;28;20186;-67
2021/12/20 04:18:45;;;;;;;15.50;2.85;;;31.30;99.90;;;;;;5072026;28;20191;-66
2021/12/20 04:21:13;;;;;;;10.25;2.03;;;31.60;99.90;;;;;;5071241;28;20178;-67
2021/12/20 04:23:41;;;;;;;6.70;2.08;;;31.20;99.90;;;;;;5071863;28;20189;-67
2021/12/20 04:26:10;;;;;;;13.48;2.78;;;31.30;99.90;;;;;;5072039;28;20179;-67
2021/12/20 04:28:37;;;;;;;11.25;2.40;;;31.90;99.90;;;;;;5070911;28;20292;-66
2021/12/20 04:31:05;;;;;;;13.27;2.13;;;31.70;99.90;;;;;;5070069;28;20218;-67
2021/12/20 04:33:32;;;;;;;8.65;2.35;;;31.70;99.90;;;;;;5070926;28;20198;-67
2021/12/20 04:36:00;;;;;;;14.32;2.45;;;31.40;99.90;;;;;;5070357;28;20228;-66
2021/12/20 04:38:29;;;;;;;11.68;2.58;;;31.60;99.90;;;;;;5071183;28;20262;-67
2021/12/20 04:40:57;;;;;;;13.07;2.47;;;32.50;99.90;;;;;;5070622;28;20188;-68
2021/12/20 04:43:24;;;;;;;12.52;2.92;;;32.50;99.90;;;;;;5070767;28;20187;-69
2021/12/20 04:45:52;;;;;;;8.65;2.00;;;32.80;99.90;;;;;;5069404;28;20206;-68
2021/12/20 04:48:19;;;;;;;12.07;2.20;;;32.30;99.90;;;;;;5070721;28;20187;-66
2021/12/20 04:50:47;;;;;;;12.18;2.47;;;32.20;99.90;;;;;;5069787;28;20207;-65
2021/12/20 04:53:14;;;;;;;16.25;2.58;;;32.30;99.90;;;;;;5070949;28;20184;-67
2021/12/20 04:55:41;;;;;;;11.07;2.13;;;32.40;99.90;;;;;;5070652;28;20179;-68
2021/12/20 04:58:09;;;;;;;11.77;2.60;;;32.30;99.90;;;;;;5070697;28;20242;-69
2021/12/20 05:00:40;;;;;;;10.88;2.28;;;32.10;99.90;;;;;;5067582;28;20198;-69
2021/12/20 05:03:08;;;;;;;12.25;2.53;;;31.90;99.90;;;;;;5066729;28;20587;-67
2021/12/20 05:05:36;;;;;;;16.17;2.88;;;31.70;99.90;;;;;;5068542;28;20191;-67
2021/12/20 05:08:04;;;;;;;12.90;2.60;;;31.30;99.90;;;;;;5066262;28;20176;-67
2021/12/20 05:10:37;;;;;;;12.23;2.50;;;31.80;99.90;;;;;;5068786;28;20202;-68
2021/12/20 05:13:10;;;;;;;12.25;2.60;;;31.80;99.90;;;;;;5066389;28;20182;-68
2021/12/20 05:15:39;;;;;;;14.63;2.88;;;32.10;99.90;;;;;;5068385;28;20212;-68
2021/12/20 05:18:09;;;;;;;12.35;2.30;;;31.70;99.90;;;;;;5064882;28;20182;-69
2021/12/20 05:20:37;;;;;;;14.40;2.40;;;31.80;99.90;;;;;;5068669;28;20187;-68
2021/12/20 05:23:05;;;;;;;14.68;2.63;;;31.80;99.90;;;;;;5065335;28;20312;-67
2021/12/20 05:25:32;;;;;;;14.73;3.20;;;31.30;99.90;;;;;;5069268;28;20188;-68
2021/12/20 05:28:00;;;;;;;15.38;2.78;;;31.00;99.90;;;;;;5068198;28;20239;-69
2021/12/20 05:30:27;;;;;;;12.68;2.67;;;31.00;99.90;;;;;;5069127;28;20210;-69
2021/12/20 05:32:55;;;;;;;12.05;2.60;;;31.50;99.90;;;;;;5069635;28;20547;-68
2021/12/20 05:35:23;;;;;;;11.63;2.75;;;31.30;99.90;;;;;;5070417;28;20192;-69
2021/12/20 05:37:51;;;;;;;24.15;3.72;;;31.50;99.90;;;;;;5070582;28;20523;-68
2021/12/20 05:40:20;;;;;;;20.15;3.00;;;31.70;99.90;;;;;;5070596;28;21504;-72
2021/12/20 05:42:48;;;;;;;10.60;2.83;;;31.20;99.90;;;;;;5073818;28;20543;-69
2021/12/20 05:45:16;;;;;;;17.33;3.15;;;31.30;99.90;;;;;;5073558;28;20186;-70
2021/12/20 05:47:43;;;;;;;11.27;2.72;;;31.50;99.90;;;;;;5072660;28;20282;-68
2021/12/20 05:50:13;;;;;;;12.38;2.35;;;31.10;99.90;;;;;;5073855;28;20195;-68
2021/12/20 05:52:40;;;;;;;18.50;3.08;;;31.20;99.90;;;;;;5073836;28;20633;-69
2021/12/20 05:55:09;;;;;;;13.68;2.35;;;31.40;99.90;;;;;;5073819;28;20629;-70
2021/12/20 05:57:38;;;;;;;12.50;2.70;;;31.20;99.90;;;;;;5072188;28;20219;-69
2021/12/20 06:00:12;;;;;;;10.65;2.45;;;31.30;99.90;;;;;;5072347;28;20656;-70
2021/12/20 06:02:40;;;;;;;13.75;2.55;;;31.20;99.90;;;;;;5072779;28;20199;-70
2021/12/20 06:05:08;;;;;;;14.48;3.45;;;31.40;99.90;;;;;;5073420;28;20312;-69
2021/12/20 06:07:39;;;;;;;15.82;2.60;;;31.60;99.90;;;;;;5072474;28;20228;-69
2021/12/20 06:10:12;;;;;;;11.80;2.78;;;31.70;99.90;;;;;;5072031;28;20266;-71
2021/12/20 06:12:40;;;;;;;16.35;2.60;;;31.40;99.90;;;;;;5072399;28;20203;-68
2021/12/20 06:15:08;;;;;;;11.80;2.92;;;31.40;99.90;;;;;;5073124;28;20243;-70
2021/12/20 06:17:36;;;;;;;14.60;2.85;;;31.60;99.90;;;;;;5055559;28;20693;-69
2021/12/20 06:20:09;;;;;;;13.20;2.50;;;32.00;99.90;;;;;;5073401;28;20500;-68
2021/12/20 06:22:37;;;;;;;10.50;3.63;;;31.60;99.90;;;;;;5072112;28;20187;-69
2021/12/20 06:25:05;;;;;;;18.80;4.40;;;31.80;99.90;;;;;;5072627;28;20236;-70
2021/12/20 06:27:32;;;;;;;13.88;3.80;;;32.50;99.90;;;;;;5072976;28;20253;-70
2021/12/20 06:29:59;;;;;;;11.43;2.60;;;32.00;99.90;;;;;;5073059;28;20197;-68
2021/12/20 06:32:27;;;;;;;12.90;2.58;;;31.80;99.90;;;;;;5072309;28;20226;-69
2021/12/20 06:34:55;;;;;;;12.85;2.42;;;31.40;99.90;;;;;;5072536;28;20175;-70
2021/12/20 06:37:24;;;;;;;16.58;3.00;;;31.20;99.90;;;;;;5068058;28;20195;-70
2021/12/20 06:39:51;;;;;;;8.93;2.40;;;30.80;99.90;;;;;;5072072;28;20171;-70
2021/12/20 06:42:19;;;;;;;10.65;2.42;;;30.50;99.90;;;;;;5071322;28;20171;-68
2021/12/20 06:44:46;;;;;;;13.45;1.88;;;30.90;99.90;;;;;;5069072;28;20179;-70
2021/12/20 06:47:14;;;;;;;15.75;2.10;;;31.00;99.90;;;;;;5071159;28;20183;-70
2021/12/20 06:49:45;;;;;;;9.63;1.80;;;30.90;99.90;;;;;;5072414;28;20197;-70
2021/12/20 06:52:12;;;;;;;9.57;1.98;;;30.90;99.90;;;;;;5071237;28;20207;-69
2021/12/20 06:54:39;;;;;;;15.07;2.28;;;30.80;99.90;;;;;;5072784;28;20619;-72
2021/12/20 06:57:07;;;;;;;9.65;1.98;;;30.80;99.90;;;;;;5071924;28;20681;-72
2021/12/20 06:59:34;;;;;;;10.77;2.25;;;31.20;99.90;;;;;;5071410;28;20195;-70
2021/12/20 07:02:02;;;;;;;6.70;1.73;;;31.20;99.90;;;;;;5066848;28;20210;-70
2021/12/20 07:04:29;;;;;;;7.07;1.80;;;30.90;99.90;;;;;;5067433;28;20749;-73
2021/12/20 07:06:56;;;;;;;10.55;2.20;;;30.50;99.90;;;;;;5069800;28;20178;-71
2021/12/20 07:09:23;;;;;;;9.15;2.13;;;30.50;99.90;;;;;;5051519;28;20222;-71
2021/12/20 07:11:51;;;;;;;11.90;2.20;;;30.60;99.90;;;;;;5069669;28;20230;-71
2021/12/20 07:14:19;;;;;;;10.07;2.40;;;30.60;99.90;;;;;;5068813;28;20190;-72
2021/12/20 07:16:46;;;;;;;11.82;2.15;;;30.40;99.90;;;;;;5070808;28;20832;-71
2021/12/20 07:19:13;;;;;;;14.77;3.47;;;30.40;99.90;;;;;;5070341;28;20172;-70
2021/12/20 07:21:41;;;;;;;18.87;2.90;;;29.70;99.90;;;;;;5071533;28;20203;-70
2021/12/20 07:24:08;;;;;;;15.43;3.20;;;29.40;99.90;;;;;;5069951;28;20171;-71
2021/12/20 07:26:36;;;;;;;9.60;2.63;;;29.10;99.90;;;;;;5070365;28;20175;-70
2021/12/20 07:29:06;;;;;;;10.80;3.13;;;28.70;99.90;;;;;;5070455;28;20258;-70
2021/12/20 07:31:34;;;;;;;10.23;2.93;;;28.40;99.90;;;;;;5069703;28;20209;-71
2021/12/20 07:34:01;;;;;;;18.13;3.70;;;28.30;99.90;;;;;;5071335;28;20175;-69
2021/12/20 07:36:28;;;;;;;21.23;3.83;;;28.10;99.90;;;;;;5066957;28;20266;-71
2021/12/20 07:38:56;;;;;;;15.00;2.87;;;28.00;99.90;;;;;;5062743;28;20658;-69
2021/12/20 07:41:24;;;;;;;22.90;3.40;;;28.00;99.90;;;;;;5070717;28;20209;-71
2021/12/20 07:43:52;;;;;;;16.47;3.43;;;28.00;99.90;;;;;;5049195;28;20684;-71
2021/12/20 07:46:20;;;;;;;19.30;3.40;;;27.80;99.90;;;;;;5071994;28;20191;-71
2021/12/20 07:48:49;;;;;;;15.07;3.07;;;27.80;99.90;;;;;;5071755;28;20593;-69
2021/12/20 07:51:18;;;;;;;19.07;3.20;;;27.70;99.90;;;;;;5066715;28;20199;-67
2021/12/20 07:53:51;;;;;;;15.47;3.13;;;27.50;99.90;;;;;;5071997;28;20202;-71
2021/12/20 07:56:18;;;;;;;11.90;2.80;;;27.50;99.90;;;;;;5070920;28;20187;-70
2021/12/20 07:58:49;;;;;;;19.17;3.27;;;27.40;99.90;;;;;;5053424;28;20695;-69
2021/12/20 08:01:17;;;;;;;23.93;5.10;;;27.40;99.90;;;;;;5070736;28;20229;-69
2021/12/20 08:03:44;;;;;;;15.97;3.60;;;27.40;99.90;;;;;;5071402;28;20191;-71
2021/12/20 08:06:11;;;;;;;25.00;4.13;;;27.20;99.90;;;;;;5070666;28;20171;-72
2021/12/20 08:08:40;;;;;;;16.73;3.70;;;27.20;99.90;;;;;;5071719;28;20179;-73
2021/12/20 08:11:08;;;;;;;16.30;3.50;;;27.10;99.90;;;;;;5052568;28;20211;-70
2021/12/20 08:13:44;;;;;;;15.60;3.70;;;27.10;99.90;;;;;;5071305;28;20172;-71
2021/12/20 08:16:16;;;;;;;18.57;3.53;;;27.00;99.90;;;;;;5068939;28;20633;-71
2021/12/20 08:18:44;;;;;;;18.73;3.77;;;27.00;99.90;;;;;;5070091;28;20258;-69
2021/12/20 08:21:14;;;;;;;17.33;2.97;;;26.90;99.90;;;;;;5068954;28;20193;-70
2021/12/20 08:23:43;;;;;;;17.03;3.13;;;26.70;99.90;;;;;;5060644;28;20244;-67
2021/12/20 08:26:11;;;;;;;21.63;3.70;;;26.70;99.90;;;;;;5069348;28;20722;-67
2021/12/20 08:28:38;;;;;;;21.77;3.97;;;26.60;99.90;;;;;;5071802;28;20258;-69
2021/12/20 08:31:09;;;;;;;14.07;3.50;;;26.60;99.90;;;;;;5070448;28;20222;-69
2021/12/20 08:33:37;;;;;;;16.17;3.13;;;26.60;99.90;;;;;;5064868;28;20179;-70
2021/12/20 08:36:10;;;;;;;18.50;3.27;;;26.60;99.90;;;;;;5070218;28;20191;-70
2021/12/20 08:38:38;;;;;;;14.90;3.70;;;26.60;99.90;;;;;;5046713;28;20262;-70
2021/12/20 08:41:06;;;;;;;13.30;3.03;;;26.60;99.90;;;;;;5070320;28;20187;-69
2021/12/20 08:43:33;;;;;;;20.60;3.63;;;26.60;99.90;;;;;;5069022;28;20175;-70
2021/12/20 08:46:02;;;;;;;19.90;3.20;;;26.50;99.90;;;;;;5070666;28;20182;-70
2021/12/20 08:48:31;;;;;;;14.17;3.60;;;26.40;99.90;;;;;;5067742;28;20250;-70
2021/12/20 08:51:01;;;;;;;18.70;3.47;;;26.30;99.90;;;;;;5068237;28;20306;-68
2021/12/20 08:53:29;;;;;;;20.37;3.37;;;26.20;99.90;;;;;;5070992;28;20176;-70
2021/12/20 08:55:58;;;;;;;16.67;3.33;;;26.10;99.90;;;;;;5071029;28;20179;-71
2021/12/20 08:58:25;;;;;;;18.50;3.57;;;26.10;99.90;;;;;;5070055;28;20223;-71
2021/12/20 09:00:57;;;;;;;25.90;4.43;;;26.20;99.90;;;;;;5069307;28;20731;-70
2021/12/20 09:03:28;;;;;;;22.53;3.80;;;26.10;99.90;;;;;;5061812;28;20203;-69
2021/12/20 09:05:55;;;;;;;16.87;3.47;;;26.00;99.90;;;;;;5069005;28;20657;-70
2021/12/20 09:08:23;;;;;;;19.90;3.83;;;25.90;99.90;;;;;;5068974;28;20202;-70
2021/12/20 09:10:50;;;;;;;14.53;3.63;;;25.90;99.90;;;;;;5068183;28;20740;-69
2021/12/20 09:13:18;;;;;;;17.70;3.43;;;25.90;99.90;;;;;;5065722;28;20824;-70
2021/12/20 09:15:45;;;;;;;19.43;3.30;;;25.90;99.90;;;;;;5065063;28;20194;-69
2021/12/20 09:18:13;;;;;;;24.10;3.93;;;25.80;99.90;;;;;;5071266;28;20168;-72
2021/12/20 09:20:40;;;;;;;21.17;3.80;;;25.70;99.90;;;;;;5073029;28;20696;-72
2021/12/20 09:23:11;;;;;;;13.50;2.90;;;25.70;99.90;;;;;;5072455;28;20172;-71
2021/12/20 09:25:45;;;;;;;12.73;3.07;;;25.70;99.90;;;;;;5070161;28;20186;-71
2021/12/20 09:28:15;;;;;;;17.63;3.90;;;25.70;99.90;;;;;;5071315;28;20186;-72
2021/12/20 09:30:46;;;;;;;22.27;3.60;;;25.70;99.90;;;;;;5067556;28;20211;-71
2021/12/20 09:33:14;;;;;;;19.60;3.07;;;25.70;99.90;;;;;;5063053;28;20248;-71
2021/12/20 09:35:42;;;;;;;13.07;2.77;;;25.70;99.90;;;;;;5074406;28;20171;-71
2021/12/20 09:38:12;;;;;;;15.17;2.83;;;25.70;99.90;;;;;;5073195;28;20202;-71
2021/12/20 09:40:40;;;;;;;21.47;3.30;;;25.60;99.90;;;;;;5074598;28;20584;-71
2021/12/20 09:43:11;;;;;;;19.93;3.17;;;25.60;99.90;;;;;;5072351;28;20183;-71
2021/12/20 09:45:42;;;;;;;18.47;3.87;;;25.60;99.90;;;;;;5074824;28;20232;-71
2021/12/20 09:48:16;;;;;;;18.50;3.90;;;25.60;99.90;;;;;;5069742;28;20202;-70
2021/12/20 09:50:43;;;;;;;20.43;3.40;;;25.50;99.90;;;;;;5074552;28;20254;-72
2021/12/20 09:53:11;;;;;;;15.13;3.23;;;25.50;99.90;;;;;;5073679;28;20671;-72
2021/12/20 09:55:48;;;;;;;17.30;3.20;;;25.50;99.90;;;;;;5074204;28;20207;-71
2021/12/20 09:58:16;;;;;;;17.53;3.10;;;25.50;99.90;;;;;;5072358;28;20227;-71
2021/12/20 10:00:44;;;;;;;22.17;3.77;;;25.50;99.90;;;;;;5077629;28;20622;-72
2021/12/20 10:03:13;;;;;;;25.83;3.90;;;25.50;99.90;;;;;;5072406;28;20183;-71
2021/12/20 10:05:40;;;;;;;15.47;2.77;;;25.50;99.90;;;;;;5074227;28;20175;-71
2021/12/20 10:08:19;;;;;;;16.97;3.63;;;25.50;99.90;;;;;;5073925;28;20191;-71
2021/12/20 10:10:52;;;;;;;21.10;3.17;;;25.40;99.90;;;;;;5072029;28;20616;-72
2021/12/20 10:13:22;;;;;;;16.40;3.27;;;25.40;99.90;;;;;;5069867;28;20710;-72
2021/12/20 10:15:50;;;;;;;28.50;3.70;;;25.40;99.90;;;;;;5073534;28;20186;-71
2021/12/20 10:18:17;;;;;;;11.83;3.37;;;25.40;99.90;;;;;;5070176;28;20190;-72
2021/12/20 10:20:51;;;;;;;12.93;2.63;;;25.40;99.90;;;;;;5073062;28;20641;-71
2021/12/20 10:23:31;;;;;;;10.23;3.20;;;25.40;99.90;;;;;;5073612;28;20217;-71
2021/12/20 10:26:16;;;;;;;16.57;2.80;;;25.30;99.90;;;;;;5073146;28;20183;-72
2021/12/20 10:28:45;;;;;;;10.37;2.80;;;25.30;99.90;;;;;;5073488;28;20190;-72
2021/12/20 10:31:18;;;;;;;17.47;3.80;;;25.40;99.90;;;;;;5072905;28;20215;-72
2021/12/20 10:34:03;;;;;;;11.07;3.30;;;25.30;99.90;;;;;;5071365;28;20190;-71
2021/12/20 10:36:32;;;;;;;13.27;3.23;;;25.30;99.90;;;;;;5073055;28;20182;-72
2021/12/20 10:39:01;;;;;;;16.13;4.10;;;25.20;99.90;;;;;;5071964;28;20262;-72
2021/12/20 10:41:35;;;;;;;15.50;3.30;;;25.20;99.90;;;;;;5071402;28;20180;-72
2021/12/20 10:44:20;;;;;;;15.97;3.70;;;25.20;99.90;;;;;;5071058;28;20175;-72
2021/12/20 10:46:58;;;;;;;13.73;2.80;;;25.20;99.90;;;;;;5073315;28;20571;-72
2021/12/20 10:49:30;;;;;;;21.57;3.17;;;25.20;99.90;;;;;;5071466;28;20191;-72
2021/12/20 10:51:59;;;;;;;9.40;2.80;;;25.10;99.90;;;;;;5073056;28;20218;-72
2021/12/20 10:54:31;;;;;;;15.73;3.00;;;25.10;99.90;;;;;;5069720;28;20518;-72
2021/12/20 10:57:01;;;;;;;21.73;4.03;;;25.10;99.90;;;;;;5072687;28;20238;-71
2021/12/20 10:59:30;;;;;;;12.40;3.43;;;25.10;99.90;;;;;;5080647;28;21497;-71
2021/12/20 11:02:56;;;;;;;11.87;3.23;;;25.10;99.90;;;;;;5071206;28;20653;-71
2021/12/20 11:04:52;;;;;;;11.33;2.97;;;25.10;99.90;;;;;;5069470;28;20191;-71
2021/12/20 11:10:05;;;;;;;11.83;3.07;;;25.10;99.90;;;;;;5070872;28;20239;-71
2021/12/20 11:12:33;;;;;;;12.70;3.00;;;25.10;99.90;;;;;;5069218;28;20241;-71
2021/12/20 11:15:08;;;;;;;20.03;3.87;;;25.10;99.90;;;;;;5070181;28;20236;-71
2021/12/20 11:17:40;;;;;;;10.53;2.50;;;25.10;99.90;;;;;;5070373;28;20190;-71
2021/12/20 11:20:07;;;;;;;17.83;3.70;;;25.10;99.90;;;;;;5069538;28;20654;-71
2021/12/20 11:22:36;;;;;;;16.80;3.47;;;25.10;99.90;;;;;;5070871;28;20183;-71
2021/12/20 11:25:11;;;;;;;15.47;3.73;;;25.10;99.90;;;;;;5051546;28;20863;-71
2021/12/20 11:27:46;;;;;;;14.80;3.10;;;25.00;99.90;;;;;;5065615;28;20183;-72
2021/12/20 11:30:17;;;;;;;13.57;2.60;;;25.00;99.90;;;;;;5070626;28;20230;-72
2021/12/20 11:32:47;;;;;;;11.20;2.83;;;25.00;99.90;;;;;;5069982;28;20219;-71
2021/12/20 11:35:19;;;;;;;15.60;3.10;;;24.90;99.90;;;;;;5070708;28;20640;-71
2021/12/20 11:37:47;;;;;;;9.57;2.40;;;24.90;99.90;;;;;;5071810;28;20175;-71
2021/12/20 11:40:17;;;;;;;9.37;3.47;;;24.80;99.90;;;;;;5071914;28;20274;-71
2021/12/20 11:42:45;;;;;;;16.67;3.37;;;24.80;99.90;;;;;;5072246;28;20689;-72
2021/12/20 11:45:15;;;;;;;14.33;2.47;;;24.80;99.90;;;;;;5070525;28;20179;-72
2021/12/20 11:48:07;;;;;;;11.53;3.43;;;24.80;99.90;;;;;;5072220;28;20191;-71
2021/12/20 11:50:37;;;;;;;13.47;3.57;;;24.80;99.90;;;;;;5071415;28;20720;-71
2021/12/20 11:53:10;;;;;;;7.53;2.50;;;24.70;99.90;;;;;;5071716;28;20186;-71
2021/12/20 11:55:44;;;;;;;8.20;2.33;;;24.70;99.90;;;;;;5069615;28;20853;-71
2021/12/20 11:58:23;;;;;;;6.87;2.67;;;24.70;99.90;;;;;;5071590;28;20226;-72
2021/12/20 12:00:54;;;;;;;16.43;3.20;;;24.70;99.90;;;;;;5070990;28;20202;-71
2021/12/20 12:03:31;;;;;;;16.67;3.03;;;24.60;99.90;;;;;;5071560;28;20179;-71
2021/12/20 12:06:29;;;;;;;11.93;3.37;;;24.60;99.90;;;;;;5071830;28;20178;-71
2021/12/20 12:08:58;;;;;;;12.00;3.17;;;24.50;99.90;;;;;;5071475;28;20183;-71
2021/12/20 12:11:25;;;;;;;13.73;3.00;;;24.60;99.90;;;;;;5071523;28;20819;-71
2021/12/20 12:14:18;;;;;;;10.73;2.70;;;24.50;99.90;;;;;;5065147;28;20204;-71
2021/12/20 12:17:02;;;;;;;19.40;3.17;;;24.60;99.90;;;;;;5070862;28;20236;-72
2021/12/20 12:19:38;;;;;;;12.70;3.57;;;24.50;99.90;;;;;;5071747;28;20622;-71
2021/12/20 12:22:36;;;;;;;8.47;2.53;;;24.50;99.90;;;;;;5071751;28;20294;-72
2021/12/20 12:25:08;;;;;;;11.50;2.70;;;24.50;99.90;;;;;;5065657;28;20194;-71
2021/12/20 12:27:37;;;;;;;19.90;3.50;;;24.40;99.90;;;;;;5065823;28;20198;-71
2021/12/20 12:30:14;;;;;;;18.03;3.00;;;24.40;99.90;;;;;;5071080;28;20664;-71
2021/12/20 12:32:54;;;;;;;7.53;2.43;;;24.40;99.90;;;;;;5066113;28;20229;-71
2021/12/20 12:35:43;;;;;;;8.00;2.50;;;24.40;99.90;;;;;;5047822;28;20210;-71
2021/12/20 12:38:17;;;;;;;14.33;3.57;;;24.40;99.90;;;;;;5071410;28;20649;-71
2021/12/20 12:40:51;;;;;;;10.50;3.20;;;24.40;99.90;;;;;;5066910;28;20176;-71
2021/12/20 12:43:26;;;;;;;12.07;2.90;;;24.30;99.90;;;;;;5071355;28;20213;-70
2021/12/20 12:45:56;;;;;;;9.00;2.77;;;24.30;99.90;;;;;;5067687;28;20533;-72
2021/12/20 12:48:38;;;;;;;14.17;3.60;;;24.30;99.90;;;;;;5071347;28;20195;-71
2021/12/20 12:51:25;;;;;;;8.87;2.80;;;24.30;99.90;;;;;;5073941;28;20207;-72
2021/12/20 12:53:54;;;;;;;10.40;2.57;;;24.30;99.90;;;;;;5074252;28;20182;-72
2021/12/20 12:56:25;;;;;;;9.23;3.27;;;24.20;99.90;;;;;;5075220;28;20198;-72
2021/12/20 12:59:25;;;;;;;9.73;3.63;;;24.20;99.90;;;;;;5075575;28;20237;-72
2021/12/20 13:01:57;;;;;;;10.80;3.00;;;24.20;99.90;;;;;;5042188;28;20221;-72
2021/12/20 13:04:47;;;;;;;11.60;3.27;;;24.20;99.90;;;;;;5070131;28;20214;-72
2021/12/20 13:07:26;;;;;;;14.67;3.20;;;24.10;99.90;;;;;;5072513;28;20266;-71
2021/12/20 13:09:57;;;;;;;12.30;4.93;;;24.10;99.90;;;;;;5074527;28;20247;-71